首页
METAR-TAF:

METAR-TAF

机场 :

布雷西亚Ghedi, 意大利

纬度: 45-25N, 经度: 010-17E, 海拔: 102米

当前天气观测

该预报发布于1小时和4分钟前的17:55 UTC
风速1节,风向东南
温度 9°C
湿度 87%
气压 1022 hPa
能見度: 4000
轻雾

METAR: LIPL 181755Z 13001KT 4000 BR NSC 09/07 Q1022 RMK SKC VIS MIN 4000 WIND THR31 23001KT WIND THR13 04001KT GRN

时间: 19:59 (18:59 UTC)

预报

该预报发布于1小时和59分钟前的17:00 UTC
预报有效从18日的 18点(UTC)到 19日的 03点(UTC)
风速3节,风向多变
能見度: 4000
轻雾
成为
从 18日的 20点(UTC)到 18日的 22点(UTC)
能見度: 2000
散云层高于1000英尺
轻雾

TAF: LIPL 181700Z 1818/1903 VRB03KT 4000 BR NSC BECMG 1820/1822 2000 BR SCT010

超过4000个机场的气象观测和天气预报(METAR&TAF报告)。

可查询的气象台以黄色和红色小点在地图上表示。

将鼠标移到小点上方,可查看气象台名称。

然后点击查看天气观测和预报。

如需切换地图:点击带黑十字的绿色按钮放大地图;点击带横线的绿色按钮缩小地图;或者点击绿色箭头查看邻近地区的地图。


METAR-TAF: